Terminal Aerodrome Forecast
Issued by NWS

Home | Current Version | Previous Version | Graphics & Text | Print | Product List | Glossary On
Versions: 1 2 3 4 5 6 7 8 9 10 11 12 13 14 15 16 17 18 19 20 21
000
FTUS43 KICT 290522
TAFCNU
TAF
KCNU 290522Z 2906/3006 19005KT P6SM VCSH BKN040
     FM290900 VRB04KT P6SM BKN035
     FM291200 34007KT P6SM SCT030
      TEMPO 2912/2916 BKN025
     FM300000 36005KT P6SM SCT030=

USA.gov is the U.S. government's official web portal to all federal, state and local government web resources and services.